createdAt,value
2018-04-22T00:01:37.270Z,99739.52
2018-04-22T00:07:41.716Z,99732.73
2018-04-22T00:13:46.165Z,99728.70
2018-04-22T00:19:50.550Z,99727.17
2018-04-22T00:25:54.925Z,99725.41
2018-04-22T00:31:59.371Z,99717.17
2018-04-22T00:38:04.501Z,99703.05
2018-04-22T00:44:08.891Z,99697.81
2018-04-22T00:50:13.263Z,99691.66
2018-04-22T00:56:17.622Z,99689.50
2018-04-22T01:02:21.987Z,99676.45
2018-04-22T01:08:26.356Z,99680.16
2018-04-22T01:14:30.732Z,99678.47
2018-04-22T01:20:35.417Z,99675.83
2018-04-22T01:26:40.215Z,99681.75
2018-04-22T01:32:44.679Z,99674.45
2018-04-22T01:38:49.051Z,99673.45
2018-04-22T01:44:53.852Z,99666.70
2018-04-22T01:50:58.216Z,99665.59
2018-04-22T01:57:02.582Z,99657.57
2018-04-22T02:03:07.708Z,99658.85
2018-04-22T02:09:13.513Z,99648.86
2018-04-22T02:15:17.949Z,99649.08
2018-04-22T02:21:23.136Z,99641.91
2018-04-22T02:27:28.271Z,99635.46
2018-04-22T02:33:32.642Z,99625.33
2018-04-22T02:39:36.996Z,99628.81
2018-04-22T02:45:41.388Z,99619.39
2018-04-22T02:51:46.106Z,99609.55
2018-04-22T02:57:50.474Z,99611.44
2018-04-22T03:03:54.848Z,99594.38
2018-04-22T03:09:59.195Z,99592.83
2018-04-22T03:16:03.551Z,99584.65
2018-04-22T03:22:07.913Z,99578.36
2018-04-22T03:28:13.044Z,99578.94
2018-04-22T03:34:17.382Z,99568.38
2018-04-22T03:40:22.494Z,99568.93
2018-04-22T03:46:26.870Z,99573.83
2018-04-22T03:52:31.214Z,99572.13
2018-04-22T03:58:36.382Z,99566.98
2018-04-22T04:04:41.609Z,99559.45
2018-04-22T04:10:46.751Z,99559.77
2018-04-22T04:16:52.061Z,99564.48
2018-04-22T04:22:56.476Z,99573.39
2018-04-22T04:29:01.608Z,99563.97
2018-04-22T04:35:06.904Z,99565.94
2018-04-22T04:41:11.255Z,99550.59
2018-04-22T04:47:15.604Z,99546.33
2018-04-22T04:53:19.996Z,99550.80
2018-04-22T04:59:25.208Z,99545.01
2018-04-22T05:05:29.669Z,99540.26
2018-04-22T05:11:34.799Z,99533.22
2018-04-22T05:17:39.731Z,99541.48
2018-04-22T05:23:44.129Z,99542.03
2018-04-22T05:29:48.499Z,99536.58
2018-04-22T05:35:52.872Z,99535.67
2018-04-22T05:41:57.222Z,99535.81
2018-04-22T05:48:02.336Z,99531.69
2018-04-22T05:54:06.859Z,99525.27
2018-04-22T06:00:11.441Z,99515.67
2018-04-22T06:06:15.879Z,99512.59
2018-04-22T06:12:21.027Z,99496.55
2018-04-22T06:18:25.372Z,99493.18
2018-04-22T06:24:29.747Z,99499.22
2018-04-22T06:30:34.122Z,99485.95
2018-04-22T06:36:38.497Z,99473.61
2018-04-22T06:42:42.901Z,99476.34
2018-04-22T06:48:47.332Z,99467.08
2018-04-22T06:54:51.687Z,99451.73
2018-04-22T07:00:56.822Z,99443.66
2018-04-22T07:07:01.210Z,99447.98
2018-04-22T07:13:05.605Z,99442.49
2018-04-22T07:19:10.336Z,99436.54
2018-04-22T07:25:14.746Z,99443.14
2018-04-22T07:31:19.113Z,99446.81
2018-04-22T07:37:23.639Z,99448.59
2018-04-22T07:43:28.762Z,99446.78
2018-04-22T07:49:33.148Z,99440.98
2018-04-22T07:55:37.599Z,99424.30
2018-04-22T08:01:42.148Z,99425.48
2018-04-22T08:07:47.387Z,99424.83
2018-04-22T08:13:51.883Z,99424.98
2018-04-22T08:19:56.833Z,99417.30
2018-04-22T08:26:01.221Z,99415.75
2018-04-22T08:32:05.698Z,99408.98
2018-04-22T08:38:10.476Z,99399.02
2018-04-22T08:44:15.027Z,99394.81
2018-04-22T08:50:19.415Z,99392.99
2018-04-22T08:56:23.808Z,99378.73
2018-04-22T09:02:28.199Z,99370.30
2018-04-22T09:08:32.584Z,99372.80
2018-04-22T09:14:36.982Z,99350.45
2018-04-22T09:20:41.373Z,99346.09
2018-04-22T09:26:45.952Z,99345.47
2018-04-22T09:32:51.086Z,99338.33
2018-04-22T09:38:55.543Z,99331.06
2018-04-22T09:44:59.911Z,99320.72
2018-04-22T09:51:05.052Z,99304.69
2018-04-22T09:57:09.431Z,99290.80
2018-04-22T10:03:14.093Z,99282.41
2018-04-22T10:09:19.184Z,99270.09
2018-04-22T10:15:23.549Z,99267.56
2018-04-22T10:21:27.919Z,99257.30
2018-04-22T10:27:33.141Z,99259.74
2018-04-22T10:33:37.503Z,99259.31
2018-04-22T10:39:41.906Z,99250.95
2018-04-22T10:45:46.680Z,99257.64
2018-04-22T10:51:51.046Z,99241.23
2018-04-22T10:57:55.477Z,99234.33
2018-04-22T11:03:59.909Z,99222.92
2018-04-22T11:10:04.310Z,99214.98
2018-04-22T11:16:08.698Z,99207.92
2018-04-22T11:22:14.051Z,99197.43
2018-04-22T11:28:18.603Z,99186.67
2018-04-22T11:34:23.766Z,99172.88
2018-04-22T11:40:28.191Z,99164.48
2018-04-22T11:46:32.579Z,99159.39
2018-04-22T11:52:36.951Z,99150.09
2018-04-22T11:58:41.468Z,99132.56
2018-04-22T12:04:46.348Z,99132.34
2018-04-22T12:10:50.718Z,99127.16
2018-04-22T12:16:55.228Z,99121.62
2018-04-22T12:22:59.651Z,99108.86
2018-04-22T12:29:04.018Z,99094.24
2018-04-22T12:35:08.559Z,99093.82
2018-04-22T12:41:13.107Z,99081.86
2018-04-22T12:47:17.502Z,99080.69
2018-04-22T12:53:22.666Z,99076.29
2018-04-22T12:59:27.122Z,99069.02
2018-04-22T13:05:31.599Z,99059.03
2018-04-22T13:11:35.958Z,99043.11
2018-04-22T13:17:40.335Z,99035.17
2018-04-22T13:23:44.720Z,99021.06
2018-04-22T13:29:49.314Z,99017.97
2018-04-22T13:35:53.737Z,99010.49
2018-04-22T13:41:58.970Z,98995.92
2018-04-22T13:48:03.418Z,98989.02
2018-04-22T13:54:08.546Z,98977.47
2018-04-22T14:00:13.115Z,98959.47
2018-04-22T14:06:18.025Z,98963.32
2018-04-22T14:12:22.391Z,98947.55
2018-04-22T14:18:26.901Z,98937.05
2018-04-22T14:24:31.275Z,98941.77
2018-04-22T14:30:35.647Z,98927.94
2018-04-22T14:36:40.072Z,98920.70
2018-04-22T14:42:44.465Z,98912.28
2018-04-22T14:49:05.765Z,98903.02
2018-04-22T14:55:10.157Z,98903.16
2018-04-22T15:21:52.251Z,98890.70
2018-04-22T15:27:56.607Z,98902.18
2018-04-22T15:34:00.959Z,98900.47
2018-04-22T15:40:05.345Z,98898.52
2018-04-22T15:46:09.689Z,98886.95
2018-04-22T15:52:14.055Z,98888.21
2018-04-22T15:58:18.429Z,98887.61
2018-04-22T16:04:23.530Z,98895.16
2018-04-22T16:10:27.914Z,98878.60
2018-04-22T16:16:32.255Z,98873.63
2018-04-22T16:22:37.373Z,98862.25
2018-04-22T16:28:41.753Z,98840.56
2018-04-22T16:34:46.919Z,98832.38
2018-04-22T16:40:52.083Z,98838.15
2018-04-22T16:46:57.220Z,98880.56
2018-04-22T16:53:02.358Z,98880.87
2018-04-22T16:59:06.705Z,98906.81
2018-04-22T17:05:11.045Z,99035.30
2018-04-22T17:11:15.390Z,99095.13
2018-04-22T17:17:19.731Z,99131.87
2018-04-22T17:23:24.078Z,99150.30
2018-04-22T17:29:28.429Z,99181.28
2018-04-22T17:35:32.783Z,99188.20
2018-04-22T17:41:37.126Z,99176.59
2018-04-22T17:47:42.242Z,99191.87
2018-04-22T17:53:46.586Z,99154.03
2018-04-22T17:59:50.957Z,99170.84
2018-04-22T18:05:55.287Z,99093.75
2018-04-22T18:11:59.625Z,99067.10
2018-04-22T18:18:03.947Z,99066.22
2018-04-22T18:24:08.289Z,99064.19
2018-04-22T18:30:12.665Z,99061.85
2018-04-22T18:36:17.019Z,99035.63
2018-04-22T18:42:21.347Z,99024.60
2018-04-22T18:48:25.677Z,99087.61
2018-04-22T18:54:30.020Z,99138.84
2018-04-22T19:00:34.376Z,99126.38
2018-04-22T19:06:39.484Z,99071.17
2018-04-22T19:12:43.845Z,99046.42
2018-04-22T19:18:48.208Z,99039.03
2018-04-22T19:24:52.540Z,99032.34
2018-04-22T19:30:56.887Z,98955.79
2018-04-22T19:37:01.237Z,98944.17
2018-04-22T19:43:06.350Z,98976.76
2018-04-22T19:49:10.702Z,99032.91
2018-04-22T19:55:15.041Z,99080.42
2018-04-22T20:01:19.436Z,99002.10
2018-04-22T20:07:23.783Z,98965.98
2018-04-22T20:13:28.128Z,98985.08
2018-04-22T20:19:32.473Z,99015.72
2018-04-22T20:25:36.819Z,99122.48
2018-04-22T20:31:41.199Z,99074.20
2018-04-22T20:37:45.535Z,99032.59
2018-04-22T20:43:49.905Z,99042.23
2018-04-22T20:49:55.028Z,99040.28
2018-04-22T20:55:59.393Z,99046.69
2018-04-22T21:02:03.753Z,99049.04
2018-04-22T21:08:08.880Z,99047.80
2018-04-22T21:14:13.223Z,99029.31
2018-04-22T21:20:17.568Z,99041.78
2018-04-22T21:26:21.934Z,99022.95
2018-04-22T21:32:27.041Z,98994.31
2018-04-22T21:38:31.381Z,99003.63
2018-04-22T21:44:35.727Z,98993.83
2018-04-22T21:50:40.083Z,99008.27
2018-04-22T21:56:44.473Z,99014.38
2018-04-22T22:02:48.858Z,99015.09
2018-04-22T22:08:53.211Z,99005.87
2018-04-22T22:14:57.576Z,99005.06
2018-04-22T22:21:02.693Z,99021.50
2018-04-22T22:27:07.040Z,99030.70
2018-04-22T22:33:12.008Z,99045.42
2018-04-22T22:39:16.358Z,99046.81
2018-04-22T22:45:20.724Z,99041.44
2018-04-22T22:51:25.855Z,99035.40
2018-04-22T22:57:30.218Z,99027.88
2018-04-22T23:03:35.344Z,99030.54
2018-04-22T23:09:39.681Z,99033.04
2018-04-22T23:15:44.032Z,99031.27
2018-04-22T23:21:48.400Z,99024.78
2018-04-22T23:27:53.515Z,99025.09
2018-04-22T23:33:57.869Z,99015.24
2018-04-22T23:40:02.226Z,99020.93
2018-04-22T23:46:06.578Z,99020.56
2018-04-22T23:52:11.689Z,99008.47
2018-04-22T23:58:16.043Z,98999.86
